Time;durP1;ratioP1;P1;durP2;ratioP2;P2;SDS_P1;SDS_P2;PMS_P1;PMS_P2;Temp;Humidity;BMP_temperature;BMP_pressure;BME280_temperature;BME280_humidity;BME280_pressure;Samples;Min_cycle;Max_cycle;Signal;HPM_P1;HPM_P2
2023/09/18 00:00:45;;;;;;;4.63;2.80;;;;;;;18.00;70.86;96978.06;5157484;27;20057;-70
2023/09/18 00:03:12;;;;;;;4.50;2.78;;;;;;;17.96;70.04;96976.50;5157600;27;20467;-62
2023/09/18 00:05:39;;;;;;;5.15;2.78;;;;;;;17.98;70.63;96975.50;5157505;27;20457;-63
2023/09/18 00:08:06;;;;;;;6.85;3.33;;;;;;;18.04;71.84;96971.63;5157461;27;20047;-67
2023/09/18 00:10:35;;;;;;;4.43;2.50;;;;;;;18.05;71.89;96974.19;5157324;27;20046;-69
2023/09/18 00:13:03;;;;;;;6.90;2.63;;;;;;;18.10;72.05;96963.34;5157420;27;20074;-68
2023/09/18 00:15:30;;;;;;;4.10;2.80;;;;;;;18.13;72.13;96972.88;5157213;27;20495;-65
2023/09/18 00:17:57;;;;;;;6.40;2.90;;;;;;;18.16;71.96;96968.25;5157116;27;20046;-67
2023/09/18 00:20:26;;;;;;;4.72;2.88;;;;;;;18.16;71.84;96968.25;5157194;27;20118;-65
2023/09/18 00:22:53;;;;;;;3.72;2.90;;;;;;;18.19;71.54;96969.84;5157232;27;20049;-66
2023/09/18 00:25:20;;;;;;;4.97;2.63;;;;;;;18.22;71.97;96971.44;5157040;27;20043;-70
2023/09/18 00:27:49;;;;;;;6.75;2.92;;;;;;;18.21;72.30;96965.28;5157102;27;20107;-70
2023/09/18 00:30:16;;;;;;;5.57;2.90;;;;;;;18.17;71.69;96963.78;5157155;27;20502;-68
2023/09/18 00:32:43;;;;;;;4.25;2.47;;;;;;;18.20;71.41;96966.25;5156873;27;20551;-66
2023/09/18 00:35:10;;;;;;;7.60;3.05;;;;;;;18.24;72.72;96970.41;5156806;27;20055;-65
2023/09/18 00:37:39;;;;;;;8.98;3.40;;;;;;;18.26;71.23;96970.31;5156796;27;20460;-67
2023/09/18 00:40:07;;;;;;;7.32;3.03;;;;;;;18.24;72.18;96969.56;5156769;27;20433;-68
2023/09/18 00:42:34;;;;;;;3.08;2.60;;;;;;;18.24;72.81;96962.47;5156878;27;20053;-66
2023/09/18 00:45:03;;;;;;;6.35;2.95;;;;;;;18.23;72.52;96968.72;5156680;27;20175;-66
2023/09/18 00:47:30;;;;;;;4.10;2.78;;;;;;;18.22;72.54;96964.38;5156753;27;20043;-65
2023/09/18 00:49:57;;;;;;;4.22;2.85;;;;;;;18.25;73.14;96958.88;5156661;27;20376;-64
2023/09/18 00:52:25;;;;;;;6.22;3.15;;;;;;;18.24;73.07;96961.63;5156705;27;20080;-68
2023/09/18 00:54:55;;;;;;;4.97;3.10;;;;;;;18.25;73.73;96958.88;5156434;27;20517;-67
2023/09/18 00:57:22;;;;;;;5.43;2.77;;;;;;;18.22;74.43;96959.06;5156462;27;20097;-66
2023/09/18 00:59:50;;;;;;;4.97;3.30;;;;;;;18.18;74.50;96955.75;5156404;27;20120;-65
2023/09/18 01:02:20;;;;;;;7.05;3.05;;;;;;;18.19;74.07;96959.25;5156488;27;20054;-63
2023/09/18 01:04:49;;;;;;;7.65;3.10;;;;;;;18.18;74.25;96961.06;5156412;27;20046;-66
2023/09/18 01:07:16;;;;;;;3.17;2.75;;;;;;;18.17;74.53;96958.50;5156363;27;20050;-66
2023/09/18 01:09:43;;;;;;;4.53;2.80;;;;;;;18.16;74.87;96956.81;5156119;27;20555;-67
2023/09/18 01:12:19;;;;;;;7.50;2.63;;;;;;;18.17;74.75;96959.34;5156210;27;20415;-68
2023/09/18 01:14:54;;;;;;;3.97;2.67;;;;;;;18.16;74.75;96962.09;5156319;27;20042;-65
2023/09/18 01:17:23;;;;;;;7.80;2.90;;;;;;;18.13;74.81;96951.69;5156054;27;20543;-64
2023/09/18 01:19:50;;;;;;;8.27;2.83;;;;;;;18.12;74.90;96956.13;5156209;27;20547;-68
2023/09/18 01:22:19;;;;;;;5.15;2.88;;;;;;;18.14;75.94;96948.09;5155964;27;20392;-65
2023/09/18 01:24:48;;;;;;;5.57;2.60;;;;;;;18.13;76.53;96944.63;5155883;27;20502;-67
2023/09/18 01:27:17;;;;;;;6.35;3.00;;;;;;;18.12;76.87;96945.53;5155836;27;20182;-67
2023/09/18 01:29:44;;;;;;;4.10;2.67;;;;;;;18.14;77.55;96943.66;5155946;27;20043;-68
2023/09/18 01:32:12;;;;;;;5.78;3.13;;;;;;;18.10;77.24;96944.81;5155746;27;20410;-65
2023/09/18 01:34:42;;;;;;;4.82;3.08;;;;;;;18.07;77.30;96942.31;5155659;27;20088;-68
2023/09/18 01:37:11;;;;;;;4.05;2.83;;;;;;;18.03;77.31;96940.81;5155591;27;20043;-68
2023/09/18 01:39:40;;;;;;;7.43;3.25;;;;;;;18.02;77.62;96947.03;5155633;27;20455;-63
2023/09/18 01:42:10;;;;;;;7.78;3.50;;;;;;;17.99;77.80;96939.28;5155658;27;20388;-64
2023/09/18 01:44:38;;;;;;;3.65;3.00;;;;;;;17.93;77.45;96945.81;5155022;27;20039;-63
2023/09/18 01:47:08;;;;;;;7.13;3.63;;;;;;;17.88;77.36;96948.72;5155224;27;20066;-68
2023/09/18 01:49:36;;;;;;;5.07;2.83;;;;;;;17.78;77.24;96960.81;5155398;27;20046;-65
2023/09/18 01:52:04;;;;;;;10.50;3.30;;;;;;;17.70;77.40;96949.88;5155642;27;20048;-64
2023/09/18 01:54:31;;;;;;;7.32;3.00;;;;;;;17.65;77.72;96955.44;5155395;27;20042;-66
2023/09/18 01:56:59;;;;;;;5.15;3.20;;;;;;;17.65;78.16;96944.84;5155333;27;20047;-64
2023/09/18 01:59:27;;;;;;;5.78;2.85;;;;;;;17.60;77.91;96950.41;5155215;27;20050;-66
2023/09/18 02:01:54;;;;;;;4.53;3.20;;;;;;;17.59;78.23;96954.00;5155275;27;20126;-64
2023/09/18 02:04:22;;;;;;;3.90;2.85;;;;;;;17.57;78.85;96953.25;5155547;27;20107;-67
2023/09/18 02:06:50;;;;;;;5.50;2.85;;;;;;;17.48;78.75;96948.50;5155181;27;20377;-66
2023/09/18 02:09:18;;;;;;;3.85;3.10;;;;;;;17.37;77.83;96952.63;5155107;27;20046;-65
2023/09/18 02:11:46;;;;;;;7.63;3.33;;;;;;;17.26;78.23;96947.13;5154969;27;20138;-66
2023/09/18 02:14:13;;;;;;;8.27;2.92;;;;;;;17.06;78.50;96946.47;5155170;27;20051;-70
2023/09/18 02:16:43;;;;;;;12.63;3.67;;;;;;;16.89;79.59;96944.81;5155143;27;20129;-69
2023/09/18 02:19:10;;;;;;;6.00;3.20;;;;;;;16.79;80.06;96944.47;5155117;27;20103;-65
2023/09/18 02:21:38;;;;;;;7.13;3.10;;;;;;;16.74;80.37;96946.53;5155029;27;20049;-69
2023/09/18 02:24:05;;;;;;;4.57;2.95;;;;;;;16.66;80.35;96947.84;5154916;27;20095;-65
2023/09/18 02:26:32;;;;;;;5.53;3.28;;;;;;;16.64;80.33;96946.19;5154838;27;20496;-67
2023/09/18 02:29:01;;;;;;;5.25;2.92;;;;;;;16.59;79.96;96951.75;5154731;27;20047;-67
2023/09/18 02:31:28;;;;;;;10.88;2.90;;;;;;;16.50;79.74;96949.63;5154782;27;20372;-68
2023/09/18 02:33:57;;;;;;;8.15;3.35;;;;;;;16.37;79.74;96949.44;5154958;27;20046;-67
2023/09/18 02:36:24;;;;;;;4.18;2.85;;;;;;;16.29;79.78;96952.50;5154786;27;20077;-66
2023/09/18 02:38:51;;;;;;;7.85;3.33;;;;;;;16.19;79.65;96949.50;5154658;27;20487;-65
2023/09/18 02:41:18;;;;;;;6.15;3.92;;;;;;;16.05;79.36;96952.91;5154653;27;20079;-69
2023/09/18 02:43:45;;;;;;;4.63;3.28;;;;;;;15.96;79.92;96956.00;5154731;27;20081;-67
2023/09/18 02:46:12;;;;;;;5.60;3.50;;;;;;;15.81;80.03;96953.25;5154374;27;20078;-65
2023/09/18 02:48:39;;;;;;;7.93;3.33;;;;;;;15.66;80.72;96949.63;5154720;27;20042;-69
2023/09/18 02:51:08;;;;;;;6.97;3.58;;;;;;;15.46;81.65;96943.59;5154711;27;20047;-66
2023/09/18 02:53:35;;;;;;;3.60;3.10;;;;;;;15.36;81.76;96951.13;5154615;27;20043;-64
2023/09/18 02:56:02;;;;;;;12.38;3.42;;;;;;;15.32;81.87;96952.22;5154702;27;20046;-64
2023/09/18 02:58:30;;;;;;;12.48;3.35;;;;;;;15.18;82.37;96952.06;5158741;27;20043;-68
2023/09/18 03:00:59;;;;;;;9.30;3.55;;;;;;;15.13;82.70;96949.66;5158715;27;20126;-65
2023/09/18 03:03:26;;;;;;;8.65;3.80;;;;;;;15.02;83.28;96955.47;5158772;27;20193;-67
2023/09/18 03:05:53;;;;;;;7.75;3.58;;;;;;;14.91;83.43;96956.81;5158617;27;20058;-69
2023/09/18 03:08:22;;;;;;;6.00;3.03;;;;;;;14.86;83.78;96958.84;5158728;27;20053;-68
2023/09/18 03:10:49;;;;;;;6.88;3.63;;;;;;;14.80;84.20;96959.13;5158684;27;20039;-70
2023/09/18 03:13:16;;;;;;;4.65;3.53;;;;;;;14.73;84.31;96962.97;5158571;27;20045;-66
2023/09/18 03:15:47;;;;;;;9.63;3.50;;;;;;;14.68;85.39;96957.91;5158400;27;20065;-66
2023/09/18 03:18:15;;;;;;;7.25;3.58;;;;;;;14.63;86.14;96962.56;5158385;27;20050;-67
2023/09/18 03:20:42;;;;;;;8.52;3.58;;;;;;;14.57;86.92;96957.59;5158317;27;20049;-67
2023/09/18 03:23:09;;;;;;;4.93;3.40;;;;;;;14.57;87.03;96962.84;5158258;27;20043;-63
2023/09/18 03:25:38;;;;;;;10.05;3.53;;;;;;;14.63;86.50;96960.78;5158344;27;20043;-64
2023/09/18 03:28:05;;;;;;;4.57;3.42;;;;;;;14.71;86.13;96960.41;5158158;27;20053;-63
2023/09/18 03:30:33;;;;;;;5.80;3.53;;;;;;;14.77;85.31;96961.88;5158235;27;20518;-66
2023/09/18 03:32:59;;;;;;;7.93;3.13;;;;;;;14.83;84.87;96961.63;5158122;27;20049;-65
2023/09/18 03:35:30;;;;;;;4.07;3.20;;;;;;;14.90;84.58;96964.84;5158112;27;20042;-65
2023/09/18 03:37:57;;;;;;;5.53;3.47;;;;;;;14.92;84.07;96968.22;5157956;27;20141;-66
2023/09/18 03:40:24;;;;;;;4.10;3.25;;;;;;;14.96;83.68;96967.13;5158108;27;20125;-67
2023/09/18 03:42:53;;;;;;;8.38;3.67;;;;;;;14.99;83.75;96963.53;5157900;27;20138;-65
2023/09/18 03:45:20;;;;;;;6.07;3.20;;;;;;;15.01;82.86;96959.88;5157697;27;20122;-65
2023/09/18 03:47:49;;;;;;;5.30;3.55;;;;;;;15.01;82.26;96967.78;5157882;27;20077;-68
2023/09/18 03:50:16;;;;;;;3.72;3.33;;;;;;;14.98;82.27;96964.44;5157776;27;20050;-67
2023/09/18 03:52:43;;;;;;;5.50;3.53;;;;;;;14.98;82.38;96964.44;5157675;27;20464;-63
2023/09/18 03:55:11;;;;;;;6.85;3.67;;;;;;;14.97;82.29;96966.22;5157798;27;20042;-66
2023/09/18 03:57:40;;;;;;;6.47;3.38;;;;;;;14.96;82.13;96967.13;5157649;27;20483;-63
2023/09/18 04:00:09;;;;;;;8.90;3.03;;;;;;;14.94;82.06;96962.88;5157645;27;20053;-64
2023/09/18 04:02:36;;;;;;;6.80;3.25;;;;;;;14.94;81.61;96970.78;5157661;27;20078;-66
2023/09/18 04:05:04;;;;;;;3.97;3.00;;;;;;;14.93;81.37;96969.91;5157714;27;20053;-62
2023/09/18 04:07:31;;;;;;;8.40;3.47;;;;;;;14.91;81.71;96977.06;5157011;27;20038;-65
2023/09/18 04:09:59;;;;;;;5.50;2.90;;;;;;;14.88;81.16;96964.91;5157439;27;20043;-65
2023/09/18 04:12:27;;;;;;;6.22;3.28;;;;;;;14.83;81.09;96976.56;5157525;27;20046;-66
2023/09/18 04:14:54;;;;;;;4.68;3.25;;;;;;;14.81;81.13;96978.44;5157366;27;20162;-66
2023/09/18 04:17:23;;;;;;;6.47;3.72;;;;;;;14.82;80.77;96974.88;5157266;27;20130;-63
2023/09/18 04:19:50;;;;;;;6.35;3.30;;;;;;;14.78;80.90;96974.19;5157298;27;20039;-68
2023/09/18 04:22:17;;;;;;;4.75;2.95;;;;;;;14.77;80.86;96975.06;5157163;27;20070;-69
2023/09/18 04:24:44;;;;;;;9.32;3.03;;;;;;;14.80;80.78;96976.72;5157129;27;20377;-68
2023/09/18 04:27:11;;;;;;;5.43;3.28;;;;;;;14.81;80.39;96970.53;5157291;27;20103;-65
2023/09/18 04:29:38;;;;;;;4.70;3.40;;;;;;;14.77;80.59;96975.06;5157073;27;20051;-66
2023/09/18 04:32:06;;;;;;;5.72;2.80;;;;;;;14.73;80.69;96979.63;5156881;27;20544;-67
2023/09/18 04:34:34;;;;;;;6.38;2.42;;;;;;;14.73;81.04;96977.00;5156938;27;20052;-64
2023/09/18 04:37:03;;;;;;;3.75;3.05;;;;;;;14.82;81.10;96983.63;5157094;27;20132;-65
2023/09/18 04:39:33;;;;;;;6.35;3.15;;;;;;;14.88;80.20;96983.34;5156885;27;20046;-64
2023/09/18 04:42:04;;;;;;;6.28;3.20;;;;;;;14.90;80.22;96980.63;5156983;27;20054;-68
2023/09/18 04:44:32;;;;;;;4.75;2.83;;;;;;;14.99;80.30;96985.44;5156896;27;20049;-69
2023/09/18 04:46:59;;;;;;;5.90;3.30;;;;;;;15.05;79.63;96984.28;5156940;27;20487;-66
2023/09/18 04:49:27;;;;;;;6.85;3.13;;;;;;;15.10;79.10;96982.28;5157249;27;20042;-67
2023/09/18 04:51:56;;;;;;;7.15;3.13;;;;;;;15.15;79.11;96977.63;5156578;27;20499;-67
2023/09/18 04:54:24;;;;;;;3.00;2.70;;;;;;;15.29;79.44;96981.34;5156802;27;20057;-62
2023/09/18 04:56:51;;;;;;;6.05;2.63;;;;;;;15.39;78.46;96976.47;5156529;27;20117;-67
2023/09/18 04:59:18;;;;;;;8.70;2.75;;;;;;;15.63;77.71;96984.06;5156632;27;20122;-66
2023/09/18 05:01:45;;;;;;;4.10;2.83;;;;;;;15.92;76.77;96982.53;5156576;27;20042;-66
2023/09/18 05:04:12;;;;;;;5.43;2.60;;;;;;;16.09;75.71;96974.69;5156375;27;20042;-67
2023/09/18 05:06:41;;;;;;;6.57;2.47;;;;;;;16.19;74.66;96973.25;5156327;27;20491;-67
2023/09/18 05:09:10;;;;;;;4.28;2.13;;;;;;;16.60;74.36;96976.34;5156269;27;20051;-62
2023/09/18 05:11:37;;;;;;;5.22;2.33;;;;;;;17.40;70.64;96978.91;5156173;27;20039;-63
2023/09/18 05:14:04;;;;;;;4.13;2.25;;;;;;;18.38;68.07;96990.72;5156063;27;20047;-66
2023/09/18 05:16:31;;;;;;;5.57;2.58;;;;;;;19.60;63.18;96996.22;5156031;27;20135;-63
2023/09/18 05:18:59;;;;;;;6.18;2.08;;;;;;;20.70;59.48;96986.91;5155438;27;20078;-66
2023/09/18 05:21:27;;;;;;;2.80;2.10;;;;;;;21.67;55.81;96988.69;5155866;27;20412;-66
2023/09/18 05:23:54;;;;;;;3.28;2.22;;;;;;;22.15;53.93;97005.50;5155957;27;20100;-65
2023/09/18 05:26:24;;;;;;;2.67;1.98;;;;;;;22.61;53.73;96994.88;5155818;27;20488;-66
2023/09/18 05:28:53;;;;;;;5.93;2.20;;;;;;;23.37;51.30;96997.72;5155947;27;20553;-68
2023/09/18 05:31:20;;;;;;;2.72;2.00;;;;;;;24.23;49.42;97004.78;5155870;27;20070;-69
2023/09/18 05:33:48;;;;;;;5.43;1.80;;;;;;;25.04;47.44;96991.53;5155948;27;20047;-70
2023/09/18 05:36:15;;;;;;;3.53;2.00;;;;;;;25.62;46.00;96992.56;5155851;27;20047;-68
2023/09/18 05:38:43;;;;;;;4.47;2.28;;;;;;;26.28;45.09;97005.22;5155754;27;20064;-66
2023/09/18 05:41:10;;;;;;;6.05;2.25;;;;;;;26.95;44.19;97005.06;5155560;27;20048;-68
2023/09/18 05:43:38;;;;;;;2.03;1.80;;;;;;;27.91;42.40;97001.94;5155601;27;20046;-70
2023/09/18 05:46:05;;;;;;;4.57;1.98;;;;;;;28.67;40.49;97001.34;5155264;27;20105;-68
2023/09/18 05:48:32;;;;;;;5.13;2.13;;;;;;;29.23;38.58;97003.53;5155840;27;20091;-66
2023/09/18 05:50:59;;;;;;;6.03;2.00;;;;;;;28.41;39.80;97004.94;5155597;27;20042;-65
2023/09/18 05:53:26;;;;;;;8.60;2.58;;;;;;;27.34;41.82;96998.63;5155406;27;20487;-70
2023/09/18 05:55:53;;;;;;;6.18;2.65;;;;;;;26.17;44.42;97003.56;5155326;27;20046;-66
2023/09/18 05:58:24;;;;;;;3.50;2.15;;;;;;;25.27;46.37;96993.91;5155299;27;20054;-66
2023/09/18 06:00:52;;;;;;;5.25;2.30;;;;;;;24.68;48.15;96997.34;5155258;27;20055;-67
2023/09/18 06:03:20;;;;;;;4.85;2.38;;;;;;;24.19;48.90;96995.31;5155387;27;20078;-66
2023/09/18 06:05:48;;;;;;;3.97;2.25;;;;;;;23.52;50.20;96995.56;5155327;27;20521;-67
2023/09/18 06:08:15;;;;;;;3.88;1.90;;;;;;;22.86;52.19;96995.53;5155122;27;20043;-66
2023/09/18 06:10:43;;;;;;;2.97;2.33;;;;;;;22.36;54.02;96993.28;5155069;27;20092;-67
2023/09/18 06:13:10;;;;;;;4.57;2.40;;;;;;;21.84;55.21;96989.25;5155137;27;20047;-65
2023/09/18 06:15:37;;;;;;;4.90;2.20;;;;;;;21.45;56.74;96998.31;5155008;27;20078;-68
2023/09/18 06:18:06;;;;;;;4.95;2.72;;;;;;;21.32;58.62;96998.41;5154875;27;20082;-67
2023/09/18 06:20:33;;;;;;;4.72;1.90;;;;;;;21.87;57.49;96993.47;5155045;27;20127;-65
2023/09/18 06:23:00;;;;;;;5.28;2.42;;;;;;;22.91;55.38;96992.50;5155030;27;20120;-70
2023/09/18 06:25:27;;;;;;;5.07;2.25;;;;;;;23.30;54.22;96994.69;5154857;27;20527;-68
2023/09/18 06:27:54;;;;;;;3.45;2.55;;;;;;;23.52;54.61;96988.44;5154818;27;20051;-65
2023/09/18 06:30:21;;;;;;;3.90;2.00;;;;;;;23.42;52.89;97004.34;5154708;27;20050;-65
2023/09/18 06:32:49;;;;;;;6.00;2.33;;;;;;;23.53;50.58;96998.13;5154913;27;20134;-65
2023/09/18 06:35:17;;;;;;;3.05;2.08;;;;;;;24.15;50.27;97001.91;5154914;27;20050;-65
2023/09/18 06:37:44;;;;;;;5.82;1.95;;;;;;;24.73;46.74;97005.78;5154719;27;20057;-66
2023/09/18 06:40:12;;;;;;;4.15;2.20;;;;;;;24.24;45.69;97001.13;5154670;27;20051;-67
2023/09/18 06:42:39;;;;;;;3.67;1.95;;;;;;;23.52;47.43;97007.09;5155040;27;20126;-69
2023/09/18 06:45:07;;;;;;;6.28;2.00;;;;;;;22.80;48.58;97007.56;5154469;27;20126;-64
2023/09/18 06:47:35;;;;;;;4.30;2.22;;;;;;;22.41;49.99;97009.72;5154769;27;20050;-66
2023/09/18 06:50:04;;;;;;;4.95;1.95;;;;;;;22.22;51.25;97014.69;5154769;27;20042;-65
2023/09/18 06:52:32;;;;;;;4.55;1.80;;;;;;;22.03;51.17;97014.47;5154719;27;20494;-66
2023/09/18 06:54:59;;;;;;;6.32;2.53;;;;;;;21.93;52.54;97017.81;5154690;27;20043;-64
2023/09/18 06:57:27;;;;;;;3.13;2.00;;;;;;;21.67;52.03;97014.47;5154721;27;20126;-67
2023/09/18 06:59:54;;;;;;;4.57;2.35;;;;;;;21.53;53.22;97011.03;5154999;27;20050;-68
2023/09/18 07:02:21;;;;;;;3.97;2.30;;;;;;;21.36;53.01;97014.97;5154628;27;20049;-68
2023/09/18 07:04:48;;;;;;;5.70;2.20;;;;;;;21.24;53.85;97021.19;5154603;27;20126;-62
2023/09/18 07:07:17;;;;;;;3.75;2.00;;;;;;;21.19;53.67;97009.06;5154599;27;20295;-64
2023/09/18 07:09:45;;;;;;;3.45;2.45;;;;;;;20.98;53.79;97014.16;5154615;27;20065;-63
2023/09/18 07:12:12;;;;;;;3.47;2.40;;;;;;;21.32;53.92;97014.34;5154395;27;20083;-64
2023/09/18 07:14:39;;;;;;;2.85;2.30;;;;;;;21.77;53.24;97012.84;5154412;27;20491;-63
2023/09/18 07:17:06;;;;;;;7.10;2.10;;;;;;;21.74;51.98;97015.69;5154483;27;20427;-65
2023/09/18 07:19:33;;;;;;;3.10;2.22;;;;;;;21.55;53.60;97010.94;5154433;27;20060;-68
2023/09/18 07:22:00;;;;;;;2.95;2.00;;;;;;;21.91;54.79;97014.41;5154346;27;20047;-65
2023/09/18 07:24:27;;;;;;;4.32;1.70;;;;;;;22.33;52.51;97013.00;5154344;27;20046;-65
2023/09/18 07:26:57;;;;;;;4.15;2.10;;;;;;;22.80;50.47;97017.38;5154727;27;20050;-66
2023/09/18 07:29:26;;;;;;;3.65;2.10;;;;;;;23.10;48.06;97011.38;5154388;27;20412;-64
2023/09/18 07:31:53;;;;;;;8.27;2.47;;;;;;;23.45;48.48;97013.94;5154508;27;20047;-66
2023/09/18 07:34:20;;;;;;;2.78;1.83;;;;;;;23.72;45.84;97018.75;5154434;27;20595;-65
2023/09/18 07:36:47;;;;;;;5.68;2.17;;;;;;;23.80;47.41;97011.94;5154156;27;20100;-66
2023/09/18 07:39:14;;;;;;;5.35;2.20;;;;;;;24.09;45.79;97009.44;5154154;27;20046;-62
2023/09/18 07:41:41;;;;;;;3.30;2.03;;;;;;;24.44;45.06;97007.38;5154290;27;20043;-66
2023/09/18 07:44:10;;;;;;;5.32;2.10;;;;;;;24.82;44.87;97004.97;5157339;27;20126;-62
2023/09/18 07:46:37;;;;;;;2.17;1.98;;;;;;;24.93;45.21;97012.06;5157795;27;20134;-65
2023/09/18 07:49:04;;;;;;;4.85;2.05;;;;;;;24.58;44.87;97016.00;5157987;27;20047;-63
2023/09/18 07:51:31;;;;;;;3.67;2.00;;;;;;;24.48;44.60;97019.47;5158020;27;20114;-66
2023/09/18 07:53:58;;;;;;;3.53;2.40;;;;;;;24.65;44.75;97013.66;5157852;27;20050;-65
2023/09/18 07:56:27;;;;;;;4.22;1.80;;;;;;;25.02;42.25;97014.88;5157775;27;20039;-68
2023/09/18 07:58:54;;;;;;;3.60;2.15;;;;;;;25.38;41.97;97011.69;5157646;27;20483;-67
2023/09/18 08:01:22;;;;;;;2.90;2.17;;;;;;;25.50;40.07;97013.25;5157632;27;20125;-65
2023/09/18 08:03:50;;;;;;;6.00;2.00;;;;;;;25.05;37.56;97017.28;5157544;27;20119;-66
2023/09/18 08:06:18;;;;;;;3.53;2.15;;;;;;;25.22;39.70;97013.94;5157551;27;20137;-65
2023/09/18 08:08:46;;;;;;;3.60;1.88;;;;;;;25.66;39.48;97010.00;5157501;27;20043;-67
2023/09/18 08:11:13;;;;;;;4.10;2.13;;;;;;;25.86;40.52;97012.69;5157466;27;20049;-66
2023/09/18 08:13:40;;;;;;;4.68;2.10;;;;;;;25.96;39.88;97008.13;5157333;27;20095;-64
2023/09/18 08:16:08;;;;;;;5.00;2.17;;;;;;;26.03;39.18;97005.72;5157443;27;20049;-66
2023/09/18 08:18:40;;;;;;;3.35;2.20;;;;;;;25.83;42.04;97008.44;5157265;27;20078;-64
2023/09/18 08:21:08;;;;;;;3.88;2.15;;;;;;;26.25;39.50;97012.56;5157196;27;20091;-66
2023/09/18 08:23:36;;;;;;;3.22;2.10;;;;;;;26.73;37.52;97007.16;5157388;27;20051;-65
2023/09/18 08:26:03;;;;;;;3.22;1.98;;;;;;;27.04;38.19;97010.53;5157302;27;20500;-66
2023/09/18 08:28:31;;;;;;;4.50;1.92;;;;;;;27.04;36.67;97014.09;5157138;27;20078;-67
2023/09/18 08:31:01;;;;;;;3.47;2.00;;;;;;;26.92;36.14;97007.19;5157219;27;20047;-65
2023/09/18 08:33:28;;;;;;;5.70;2.20;;;;;;;26.50;38.05;96998.66;5157132;27;20053;-68
2023/09/18 08:35:56;;;;;;;2.67;2.10;;;;;;;26.37;37.51;96999.84;5157012;27;20039;-63
2023/09/18 08:38:24;;;;;;;5.03;1.85;;;;;;;26.41;34.42;96995.03;5156834;27;20050;-68
2023/09/18 08:40:51;;;;;;;3.47;2.17;;;;;;;26.41;35.38;96995.03;5156840;27;20165;-68
2023/09/18 08:43:19;;;;;;;2.13;1.92;;;;;;;26.82;35.97;96992.00;5156982;27;20411;-64
2023/09/18 08:45:53;;;;;;;3.15;1.83;;;;;;;27.12;35.42;96986.50;5156530;27;20042;-65
2023/09/18 08:48:20;;;;;;;3.47;1.80;;;;;;;26.98;36.87;96986.03;5156797;27;20125;-68
2023/09/18 08:50:49;;;;;;;3.45;2.00;;;;;;;27.23;36.84;96986.25;5156604;27;20456;-66
2023/09/18 08:53:17;;;;;;;3.47;1.90;;;;;;;27.43;35.91;96994.16;5156626;27;20385;-67
2023/09/18 08:55:44;;;;;;;2.63;1.63;;;;;;;26.99;34.92;96984.16;5156583;27;20130;-66
2023/09/18 08:58:12;;;;;;;2.75;1.67;;;;;;;26.69;35.19;96984.31;5156492;27;20093;-67
2023/09/18 09:00:39;;;;;;;3.25;1.85;;;;;;;26.64;35.07;96981.25;5156626;27;20062;-67
2023/09/18 09:03:06;;;;;;;3.60;1.48;;;;;;;26.33;34.31;96968.97;5156562;27;20042;-67
2023/09/18 09:05:34;;;;;;;7.85;2.10;;;;;;;26.31;36.56;96972.78;5156360;27;20050;-66
2023/09/18 09:08:01;;;;;;;2.97;1.92;;;;;;;26.30;35.39;96971.94;5156306;27;20047;-65
2023/09/18 09:10:30;;;;;;;3.88;2.20;;;;;;;26.39;33.61;96975.56;5156186;27;20411;-67
2023/09/18 09:13:00;;;;;;;2.70;1.80;;;;;;;26.30;34.47;96966.56;5156298;27;20052;-65
2023/09/18 09:15:29;;;;;;;4.40;1.90;;;;;;;26.25;34.01;96971.53;5156057;27;20491;-67
2023/09/18 09:18:04;;;;;;;2.33;1.70;;;;;;;25.86;34.62;96964.44;5156194;27;20055;-67
2023/09/18 09:20:32;;;;;;;1.92;1.60;;;;;;;25.80;35.45;96960.53;5156001;27;20088;-66
2023/09/18 09:23:02;;;;;;;3.90;1.80;;;;;;;25.57;35.13;96965.31;5156087;27;20082;-67
2023/09/18 09:25:33;;;;;;;2.35;1.88;;;;;;;25.10;35.53;96958.84;5156076;27;20047;-65
2023/09/18 09:28:00;;;;;;;;;;;;;;;24.83;36.00;96946.97;5156300;27;20050;-64
2023/09/18 09:30:29;;;;;;;2.97;1.80;;;;;;;24.76;37.38;96946.66;5155853;27;19930;-66
2023/09/18 09:32:58;;;;;;;2.85;1.70;;;;;;;24.84;35.95;96951.34;5155918;27;20043;-63
2023/09/18 09:35:28;;;;;;;3.58;1.90;;;;;;;24.95;37.00;96953.06;5155714;27;20050;-63
2023/09/18 09:37:57;;;;;;;6.53;2.25;;;;;;;24.99;35.15;96946.47;5155746;27;20074;-64
2023/09/18 09:40:25;;;;;;;4.43;1.75;;;;;;;25.24;34.91;96949.56;5155669;27;20046;-66
2023/09/18 09:43:00;;;;;;;3.55;1.67;;;;;;;25.52;34.22;96941.63;5155531;27;20047;-66
2023/09/18 09:45:29;;;;;;;2.40;2.10;;;;;;;25.83;35.15;96951.34;5155441;27;20056;-67
2023/09/18 09:47:58;;;;;;;2.53;2.33;;;;;;;25.68;33.20;96938.41;5155564;27;20053;-65
2023/09/18 09:50:26;;;;;;;3.45;2.30;;;;;;;25.53;34.16;96935.31;5155609;27;20134;-65
2023/09/18 09:52:55;;;;;;;4.03;2.65;;;;;;;25.50;34.19;96932.91;5155312;27;20045;-66
2023/09/18 09:55:25;;;;;;;4.00;2.47;;;;;;;25.23;33.51;96945.19;5155472;27;20546;-62
2023/09/18 09:57:57;;;;;;;3.70;2.72;;;;;;;25.07;34.82;96946.59;5155592;27;20058;-63
2023/09/18 10:00:30;;;;;;;3.50;2.78;;;;;;;25.17;35.72;96932.38;5155311;27;20046;-67
2023/09/18 10:03:00;;;;;;;6.13;2.72;;;;;;;25.32;34.35;96938.16;5155361;27;20051;-65
2023/09/18 10:05:32;;;;;;;4.68;2.65;;;;;;;25.43;34.06;96932.63;5154898;27;20046;-67
2023/09/18 10:08:02;;;;;;;4.93;2.55;;;;;;;25.07;33.31;96933.22;5155168;27;20070;-65
2023/09/18 10:10:33;;;;;;;3.47;2.73;;;;;;;24.95;33.50;96943.22;5155312;27;20043;-63
2023/09/18 10:13:09;;;;;;;2.80;2.45;;;;;;;25.12;35.52;96916.75;5155119;27;20043;-65
2023/09/18 10:15:38;;;;;;;5.72;3.15;;;;;;;25.31;33.57;96936.47;5155249;27;20410;-65
2023/09/18 10:18:14;;;;;;;3.50;2.70;;;;;;;24.88;34.28;96922.50;5155105;27;20049;-65
2023/09/18 10:20:43;;;;;;;3.00;2.50;;;;;;;24.66;33.67;96932.44;5154920;27;20068;-64
2023/09/18 10:23:24;;;;;;;3.88;2.30;;;;;;;24.41;34.73;96924.78;5154958;27;20049;-65
2023/09/18 10:25:56;;;;;;;4.18;2.70;;;;;;;24.63;35.49;96919.34;5154975;27;20117;-66
2023/09/18 10:28:27;;;;;;;3.95;2.92;;;;;;;24.86;34.12;96920.78;5154939;27;20042;-68
2023/09/18 10:30:59;;;;;;;3.50;2.80;;;;;;;25.04;34.42;96913.94;5154891;27;20450;-65
2023/09/18 10:33:27;;;;;;;6.30;3.00;;;;;;;25.04;34.00;96911.25;5154862;27;20562;-64
2023/09/18 10:35:57;;;;;;;3.25;2.95;;;;;;;25.00;34.94;96916.03;5154927;27;20488;-66
2023/09/18 10:38:26;;;;;;;4.13;3.47;;;;;;;24.85;33.70;96924.44;5154937;27;20114;-63
2023/09/18 10:40:55;;;;;;;8.27;3.20;;;;;;;24.79;34.26;96903.59;5155036;27;20118;-66
2023/09/18 10:43:22;;;;;;;6.13;3.85;;;;;;;24.92;35.48;96918.59;5154568;27;20499;-65
2023/09/18 10:45:52;;;;;;;3.80;2.72;;;;;;;24.83;32.56;96915.72;5149470;27;20050;-64
2023/09/18 10:48:22;;;;;;;5.97;2.70;;;;;;;24.68;33.47;96909.91;5154931;27;20114;-67
2023/09/18 10:50:50;;;;;;;3.65;3.10;;;;;;;24.79;33.71;96910.78;5154914;27;20091;-65
2023/09/18 10:53:19;;;;;;;3.42;3.10;;;;;;;24.87;35.56;96913.66;5154615;27;20051;-65
2023/09/18 10:55:46;;;;;;;3.40;3.03;;;;;;;24.86;33.95;96901.22;5154524;27;20487;-64
2023/09/18 10:58:25;;;;;;;5.53;3.20;;;;;;;24.93;34.89;96915.78;5154604;27;20093;-67
2023/09/18 11:00:57;;;;;;;6.70;3.50;;;;;;;24.81;35.24;96895.44;5154637;27;20047;-64
2023/09/18 11:03:24;;;;;;;4.30;3.15;;;;;;;25.08;36.04;96893.94;5154573;27;20403;-65
2023/09/18 11:06:04;;;;;;;3.85;2.85;;;;;;;25.39;34.70;96890.22;5154575;27;20043;-65
2023/09/18 11:08:35;;;;;;;4.40;3.75;;;;;;;25.60;33.62;96892.75;5154576;27;20174;-66
2023/09/18 11:11:09;;;;;;;3.80;3.47;;;;;;;25.71;34.13;96894.44;5154430;27;20051;-63
2023/09/18 11:13:39;;;;;;;7.68;3.45;;;;;;;25.59;34.63;96894.56;5154425;27;20049;-62
2023/09/18 11:16:19;;;;;;;3.80;3.38;;;;;;;25.81;33.00;96892.56;5154388;27;20075;-65
2023/09/18 11:18:49;;;;;;;7.10;3.40;;;;;;;25.41;33.28;96896.28;5157076;27;20051;-65
2023/09/18 11:21:17;;;;;;;;;;;;;;;24.69;33.92;96884.03;5158821;27;20659;-66
2023/09/18 11:23:45;;;;;;;3.03;2.78;;;;;;;24.50;35.21;96879.50;5158497;27;19929;-63
2023/09/18 11:26:12;;;;;;;6.10;3.60;;;;;;;24.69;34.24;96886.72;5158318;27;20411;-65
2023/09/18 11:28:40;;;;;;;4.32;3.22;;;;;;;24.73;33.96;96888.97;5158388;27;20077;-67
2023/09/18 11:31:07;;;;;;;5.53;4.07;;;;;;;24.80;33.93;96878.53;5158250;27;20491;-65
2023/09/18 11:33:40;;;;;;;7.70;3.25;;;;;;;25.05;34.32;96872.81;5158247;27;20088;-64
2023/09/18 11:36:11;;;;;;;5.47;3.22;;;;;;;25.37;34.20;96874.31;5158314;27;20050;-64
2023/09/18 11:38:57;;;;;;;6.63;3.45;;;;;;;25.30;33.03;96875.88;5158074;27;20046;-66